Terminal Aerodrome Forecast (TAF)

TAF

Data at: 1045 UTC 17 Nov 2018

TAF for:NVSC (Sola/Vanua Lava Arpt, --, NV) issued at 1000 UTC 17 Nov 2018
Text:TAF NVSC 171000Z 1712/1812 VRB03KT 9999 SCT020 BKN040 INTER 1712/1718 9000 -SHRA BKN018
Forecast period:1200 UTC 17 November 2018 to 1200 UTC 18 November 2018
Forecast type:FROM: standard forecast or significant change
Winds:variable direction winds at 3 MPH (3 knots; 1.5 m/s)
Visibility:6 or more sm (10+ km)
Ceiling:4000 feet AGL
Clouds: scattered clouds at 2000 feet AGL, broken clouds at 4000 feet AGL
Text:
Forecast period:1200 to 1800 UTC 17 November 2018
Forecast type:TEMPORARY: The following changes expected for less than half the time period
Visibility: 6 sm ( 9 km)
Ceiling:1800 feet AGL
Clouds: broken clouds at 1800 feet AGL
Weather:-SHRA (light rain showers)

TAF

Data at: 1045 UTC 17 Nov 2018

TAF for:NVSG (Longana Arpt, --, NV) issued at 1000 UTC 17 Nov 2018
Text:TAF NVSG 171000Z 1712/1812 VRB03KT 9999 SCT022
Forecast period:1200 to 2200 UTC 17 November 2018
Forecast type:FROM: standard forecast or significant change
Winds:variable direction winds at 3 MPH (3 knots; 1.5 m/s)
Visibility:6 or more sm (10+ km)
Ceiling:at least 12,000 feet AGL
Clouds: scattered clouds at 2200 feet AGL
Text:BECMG 1722/1724 12006KT
Forecast period:2200 UTC 17 November 2018 to 1200 UTC 18 November 2018
Forecast type:BECOMING: Conditions expected to become as follows by 0000 UTC 18 November 2018
Winds:from the ESE (120 degrees) at 7 MPH (6 knots; 3.1 m/s)
Visibility:6 or more sm (10+ km)
Ceiling:at least 12,000 feet AGL
Clouds: scattered clouds at 2200 feet AGL

TAF

Data at: 1045 UTC 17 Nov 2018

TAF for:NVSS (Santo/Pekoa Intl, --, NV) issued at 1000 UTC 17 Nov 2018
Text:TAF NVSS 171000Z 1712/1812 VRB03KT 9999 SCT022
Forecast period:1200 to 2100 UTC 17 November 2018
Forecast type:FROM: standard forecast or significant change
Winds:variable direction winds at 3 MPH (3 knots; 1.5 m/s)
Visibility:6 or more sm (10+ km)
Ceiling:at least 12,000 feet AGL
Clouds: scattered clouds at 2200 feet AGL
Text:BECMG 1721/1723 15008KT
Forecast period:2100 UTC 17 November 2018 to 1200 UTC 18 November 2018
Forecast type:BECOMING: Conditions expected to become as follows by 2300 UTC 17 November 2018
Winds:from the SSE (150 degrees) at 9 MPH (8 knots; 4.1 m/s)
Visibility:6 or more sm (10+ km)
Ceiling:at least 12,000 feet AGL
Clouds: scattered clouds at 2200 feet AGL

TAF

Data at: 1045 UTC 17 Nov 2018

TAF for:NVSL (Malekula/Lamap, --, NV) issued at 1000 UTC 17 Nov 2018
Text:TAF NVSL 171000Z 1712/1812 VRB03KT 9999 SCT022
Forecast period:1200 to 2100 UTC 17 November 2018
Forecast type:FROM: standard forecast or significant change
Winds:variable direction winds at 3 MPH (3 knots; 1.5 m/s)
Visibility:6 or more sm (10+ km)
Ceiling:at least 12,000 feet AGL
Clouds: scattered clouds at 2200 feet AGL
Text:BECMG 1721/1723 15008KT
Forecast period:2100 UTC 17 November 2018 to 1200 UTC 18 November 2018
Forecast type:BECOMING: Conditions expected to become as follows by 2300 UTC 17 November 2018
Winds:from the SSE (150 degrees) at 9 MPH (8 knots; 4.1 m/s)
Visibility:6 or more sm (10+ km)
Ceiling:at least 12,000 feet AGL
Clouds: scattered clouds at 2200 feet AGL

TAF

Data at: 1045 UTC 17 Nov 2018

TAF for:NVSP (Norsup Arpt, --, NV) issued at 1000 UTC 17 Nov 2018
Text:TAF NVSP 171000Z 1712/1812 VRB03KT 9999 SCT022
Forecast period:1200 to 2100 UTC 17 November 2018
Forecast type:FROM: standard forecast or significant change
Winds:variable direction winds at 3 MPH (3 knots; 1.5 m/s)
Visibility:6 or more sm (10+ km)
Ceiling:at least 12,000 feet AGL
Clouds: scattered clouds at 2200 feet AGL
Text:BECMG 1721/1723 15008KT
Forecast period:2100 UTC 17 November 2018 to 1200 UTC 18 November 2018
Forecast type:BECOMING: Conditions expected to become as follows by 2300 UTC 17 November 2018
Winds:from the SSE (150 degrees) at 9 MPH (8 knots; 4.1 m/s)
Visibility:6 or more sm (10+ km)
Ceiling:at least 12,000 feet AGL
Clouds: scattered clouds at 2200 feet AGL

TAF

Data at: 1045 UTC 17 Nov 2018

TAF for:NVVV (Efate/Bauerfield Int, --, NV) issued at 1000 UTC 17 Nov 2018
Text:TAF NVVV 171000Z 1712/1812 VRB03KT 9999 SCT022
Forecast period:1200 to 2100 UTC 17 November 2018
Forecast type:FROM: standard forecast or significant change
Winds:variable direction winds at 3 MPH (3 knots; 1.5 m/s)
Visibility:6 or more sm (10+ km)
Ceiling:at least 12,000 feet AGL
Clouds: scattered clouds at 2200 feet AGL
Text:BECMG 1721/1723 16007KT
Forecast period:2100 UTC 17 November 2018 to 1200 UTC 18 November 2018
Forecast type:BECOMING: Conditions expected to become as follows by 2300 UTC 17 November 2018
Winds:from the SSE (160 degrees) at 8 MPH (7 knots; 3.6 m/s)
Visibility:6 or more sm (10+ km)
Ceiling:at least 12,000 feet AGL
Clouds: scattered clouds at 2200 feet AGL

TAF

Data at: 1045 UTC 17 Nov 2018

TAF for:NVVW (Tanna Arpt, --, NV) issued at 1000 UTC 17 Nov 2018
Text:TAF NVVW 171000Z 1712/1812 VRB02KT 9999 SCT022
Forecast period:1200 to 2100 UTC 17 November 2018
Forecast type:FROM: standard forecast or significant change
Winds:variable direction winds at 2 MPH (2 knots; 1.0 m/s)
Visibility:6 or more sm (10+ km)
Ceiling:at least 12,000 feet AGL
Clouds: scattered clouds at 2200 feet AGL
Text:PROB40 INTER 1712/1718 9000 -SHRA BKN018
Forecast period:1200 to 1800 UTC 17 November 2018
Forecast type:TEMPORARY: The following changes expected for less than half the time period
Visibility: 6 sm ( 9 km)
Ceiling:1800 feet AGL
Clouds: broken clouds at 1800 feet AGL
Weather:-SHRA (light rain showers)
Text:BECMG 1721/1723 14008KT
Forecast period:2100 UTC 17 November 2018 to 1200 UTC 18 November 2018
Forecast type:BECOMING: Conditions expected to become as follows by 2300 UTC 17 November 2018
Winds:from the SE (140 degrees) at 9 MPH (8 knots; 4.1 m/s)
Visibility:6 or more sm (10+ km)
Ceiling:at least 12,000 feet AGL
Clouds: scattered clouds at 2200 feet AGL

TAF

Data at: 1045 UTC 17 Nov 2018

TAF for:NVVA (Aneityum/Mystery Isl, --, NV) issued at 1000 UTC 17 Nov 2018
Text:TAF NVVA 171000Z 1712/1812 VRB03KT 9999 SCT022 INTER 1712/1718 9000 -SHRA BKN018
Forecast period:1200 to 2100 UTC 17 November 2018
Forecast type:FROM: standard forecast or significant change
Winds:variable direction winds at 3 MPH (3 knots; 1.5 m/s)
Visibility:6 or more sm (10+ km)
Ceiling:at least 12,000 feet AGL
Clouds: scattered clouds at 2200 feet AGL
Text:BECMG 1721/1723 16007KT
Forecast period:1200 to 1800 UTC 17 November 2018
Forecast type:TEMPORARY: The following changes expected for less than half the time period
Visibility: 6 sm ( 9 km)
Ceiling:1800 feet AGL
Clouds: broken clouds at 1800 feet AGL
Weather:-SHRA (light rain showers)
Text:
Forecast period:2100 UTC 17 November 2018 to 1200 UTC 18 November 2018
Forecast type:BECOMING: Conditions expected to become as follows by 2300 UTC 17 November 2018
Winds:from the SSE (160 degrees) at 8 MPH (7 knots; 3.6 m/s)
Visibility:6 or more sm (10+ km)
Ceiling:at least 12,000 feet AGL
Clouds: scattered clouds at 2200 feet AGL

TAF

Data at: 1045 UTC 17 Nov 2018

TAF NVVV 171000Z 1712/1812 VRB03KT 9999 SCT022
  BECMG 1721/1723 16007KT
TAF NVSC 171000Z 1712/1812 VRB03KT 9999 SCT020 BKN040 INTER 1712/1718 9000 -SHRA BKN018
TAF NVSG 171000Z 1712/1812 VRB03KT 9999 SCT022
  BECMG 1722/1724 12006KT
TAF NVSS 171000Z 1712/1812 VRB03KT 9999 SCT022
  BECMG 1721/1723 15008KT
TAF NVSL 171000Z 1712/1812 VRB03KT 9999 SCT022
  BECMG 1721/1723 15008KT
TAF NVSP 171000Z 1712/1812 VRB03KT 9999 SCT022
  BECMG 1721/1723 15008KT
TAF NVVW 171000Z 1712/1812 VRB02KT 9999 SCT022
  PROB40 INTER 1712/1718 9000 -SHRA BKN018
  BECMG 1721/1723 14008KT
TAF NVVA 171000Z 1712/1812 VRB03KT 9999 SCT022 INTER 1712/1718 9000 -SHRA BKN018
  BECMG 1721/1723 16007KT